Terminal Aerodrome Forecast
Issued by NWS Charleston, WV

Current Version | Previous Version | Graphics & Text | Print | Product List | Glossary On
Versions: 1 2 3 4 5 6 7 8 9 10 11 12 13 14 15 16 17 18 19 20 21 22 23
000
FTUS41 KRLX 282335
TAFCRW
TAF
KCRW 282335Z 2900/2924 31007KT P6SM FEW050
     FM290400 00000KT 6SM BR FEW150
     FM290600 00000KT 4SM BR FEW200
     FM290800 00000KT 2SM BR SCT001
     FM291100 00000KT 3SM BR FEW001 SCT150
     FM291200 VRB03KT P6SM SCT140
     FM291500 19006KT P6SM BKN110=

USA.gov is the U.S. government's official web portal to all federal, state and local government web resources and services.